createdAt,value
2019-06-07T00:00:33.115Z,98.0
2019-06-07T00:03:29.107Z,98.0
2019-06-07T00:04:25.312Z,98.0
2019-06-07T00:05:25.585Z,98.0
2019-06-07T00:06:45.748Z,98.0
2019-06-07T00:07:40.806Z,98.0
2019-06-07T00:09:40.980Z,98.0
2019-06-07T00:10:41.008Z,98.0
2019-06-07T00:12:51.243Z,98.0
2019-06-07T00:13:51.155Z,98.0
2019-06-07T00:14:41.304Z,98.0
2019-06-07T00:15:41.615Z,98.0
2019-06-07T00:17:51.914Z,98.0
2019-06-07T00:18:52.112Z,98.0
2019-06-07T00:19:42.157Z,97.0
2019-06-07T00:20:42.374Z,97.0
2019-06-07T00:22:42.435Z,97.0
2019-06-07T00:23:42.785Z,97.0
2019-06-07T00:24:42.571Z,98.0
2019-06-07T00:25:42.565Z,98.0
2019-06-07T00:41:21.862Z,98.0
2019-06-07T00:41:59.186Z,98.0
2019-06-07T00:42:49.389Z,98.0
2019-06-07T00:44:21.411Z,98.0
2019-06-07T00:49:00.895Z,98.0
2019-06-07T00:50:50.981Z,98.0
2019-06-07T00:51:51.888Z,98.0
2019-06-07T00:53:17.383Z,98.0
2019-06-07T01:01:24.900Z,98.0
2019-06-07T01:06:24.800Z,99.0
2019-06-07T01:07:26.236Z,99.0
2019-06-07T01:08:06.162Z,99.0
2019-06-07T01:08:56.323Z,99.0
2019-06-07T01:09:56.559Z,99.0
2019-06-07T01:10:53.342Z,99.0
2019-06-07T01:12:06.863Z,99.0
2019-06-07T01:12:56.851Z,99.0
2019-06-07T01:13:56.997Z,99.0
2019-06-07T01:14:57.222Z,99.0
2019-06-07T01:15:57.313Z,99.0
2019-06-07T01:17:27.422Z,99.0
2019-06-07T01:18:33.459Z,99.0
2019-06-07T01:18:57.677Z,98.0
2019-06-07T01:19:58.035Z,98.0
2019-06-07T01:20:57.751Z,99.0
2019-06-07T01:22:18.269Z,99.0
2019-06-07T01:23:46.690Z,99.0
2019-06-07T01:24:11.744Z,99.0
2019-06-07T01:25:07.891Z,99.0
2019-06-07T01:26:30.225Z,99.0
2019-06-07T01:27:28.709Z,98.0
2019-06-07T01:28:21.273Z,98.0
2019-06-07T01:28:58.465Z,98.0
2019-06-07T01:29:58.875Z,98.0
2019-06-07T01:30:48.796Z,98.0
2019-06-07T01:32:08.951Z,98.0
2019-06-07T01:32:58.984Z,98.0
2019-06-07T01:33:51.081Z,98.0
2019-06-07T01:34:49.092Z,98.0
2019-06-07T01:35:49.307Z,98.0
2019-06-07T01:37:50.084Z,98.0
2019-06-07T01:38:50.286Z,99.0
2019-06-07T01:39:50.456Z,98.0
2019-06-07T01:40:50.713Z,98.0
2019-06-07T01:43:00.926Z,98.0
2019-06-07T01:44:00.936Z,98.0
2019-06-07T01:45:01.203Z,98.0
2019-06-07T01:46:23.349Z,98.0
2019-06-07T01:47:51.373Z,98.0
2019-06-07T01:48:51.653Z,98.0
2019-06-07T01:49:51.695Z,99.0
2019-06-07T01:50:51.908Z,98.0
2019-06-07T01:53:02.390Z,98.0
2019-06-07T01:54:26.156Z,98.0
2019-06-07T01:54:57.710Z,98.0
2019-06-07T01:58:03.063Z,98.0
2019-06-07T01:59:03.063Z,98.0
2019-06-07T02:00:03.508Z,98.0
2019-06-07T02:01:25.863Z,98.0
2019-06-07T02:02:53.436Z,98.0
2019-06-07T02:03:53.447Z,98.0
2019-06-07T02:04:53.529Z,98.0
2019-06-07T02:08:03.741Z,98.0
2019-06-07T02:09:03.757Z,98.0
2019-06-07T02:10:04.073Z,98.0
2019-06-07T02:11:25.982Z,98.0
2019-06-07T02:12:25.436Z,98.0
2019-06-07T02:12:54.461Z,98.0
2019-06-07T02:13:54.945Z,98.0
2019-06-07T02:14:54.749Z,98.0
2019-06-07T02:16:15.078Z,98.0
2019-06-07T02:17:15.221Z,98.0
2019-06-07T02:18:05.241Z,98.0
2019-06-07T02:19:05.252Z,98.0
2019-06-07T02:20:05.271Z,98.0
2019-06-07T02:21:27.799Z,98.0
2019-06-07T02:22:15.694Z,98.0
2019-06-07T02:22:55.650Z,98.0
2019-06-07T02:23:55.583Z,98.0
2019-06-07T02:25:34.367Z,98.0
2019-06-07T02:26:15.966Z,99.0
2019-06-07T02:27:15.818Z,99.0
2019-06-07T02:28:27.041Z,99.0
2019-06-07T02:29:05.932Z,99.0
2019-06-07T02:30:36.597Z,99.0
2019-06-07T02:31:28.458Z,99.0
2019-06-07T02:32:16.009Z,99.0
2019-06-07T02:32:56.021Z,99.0
2019-06-07T02:33:56.183Z,99.0
2019-06-07T02:34:56.197Z,99.0
2019-06-07T02:36:16.302Z,99.0
2019-06-07T02:37:21.461Z,99.0
2019-06-07T02:39:00.048Z,99.0
2019-06-07T02:39:50.048Z,99.0
2019-06-07T02:42:50.514Z,99.0
2019-06-07T02:43:50.548Z,99.0
2019-06-07T02:44:50.826Z,99.0
2019-06-07T02:48:01.101Z,99.0
2019-06-07T02:49:01.215Z,99.0
2019-06-07T02:50:01.225Z,99.0
2019-06-07T02:52:51.457Z,99.0
2019-06-07T02:53:51.620Z,99.0
2019-06-07T02:54:51.795Z,99.0
2019-06-07T02:58:02.001Z,99.0
2019-06-07T02:59:02.090Z,99.0
2019-06-07T03:00:06.168Z,99.0
2019-06-07T03:03:02.685Z,99.0
2019-06-07T03:04:02.930Z,99.0
2019-06-07T03:04:53.071Z,99.0
2019-06-07T03:06:23.270Z,99.0
2019-06-07T03:07:23.470Z,99.0
2019-06-07T03:08:03.373Z,99.0
2019-06-07T03:09:03.386Z,99.0
2019-06-07T03:10:03.456Z,99.0
2019-06-07T03:11:35.982Z,99.0
2019-06-07T03:12:35.214Z,99.0
2019-06-07T03:16:44.261Z,99.0
2019-06-07T03:17:44.274Z,99.0
2019-06-07T03:18:44.274Z,99.0
2019-06-07T03:19:44.333Z,99.0
2019-06-07T03:20:44.363Z,99.0
2019-06-07T03:22:14.480Z,99.0
2019-06-07T03:23:04.714Z,99.0
2019-06-07T03:24:04.701Z,99.0
2019-06-07T03:25:04.829Z,99.0
2019-06-07T03:26:45.847Z,99.0
2019-06-07T03:27:39.645Z,99.0
2019-06-07T03:28:05.036Z,99.0
2019-06-07T03:29:05.251Z,99.0
2019-06-07T03:30:34.900Z,99.0
2019-06-07T03:31:41.318Z,99.0
2019-06-07T03:32:42.771Z,99.0
2019-06-07T03:33:15.527Z,99.0
2019-06-07T03:34:15.918Z,99.0
2019-06-07T03:35:15.756Z,99.0
2019-06-07T03:36:46.193Z,99.0
2019-06-07T03:37:54.549Z,99.0
2019-06-07T03:38:44.615Z,99.0
2019-06-07T03:39:44.765Z,99.0
2019-06-07T03:40:44.762Z,99.0
2019-06-07T03:42:15.236Z,99.0
2019-06-07T03:42:55.255Z,99.0
2019-06-07T03:43:55.284Z,99.0
2019-06-07T03:44:55.394Z,99.0
2019-06-07T03:46:15.776Z,99.0
2019-06-07T03:47:15.974Z,99.0
2019-06-07T03:48:06.068Z,99.0
2019-06-07T03:49:06.147Z,99.0
2019-06-07T03:49:56.294Z,99.0
2019-06-07T03:51:24.479Z,99.0
2019-06-07T03:52:16.530Z,99.0
2019-06-07T03:52:56.610Z,99.0
2019-06-07T03:53:56.777Z,99.0
2019-06-07T03:54:56.931Z,99.0
2019-06-07T03:56:16.989Z,99.0
2019-06-07T03:57:17.312Z,99.0
2019-06-07T03:58:57.315Z,99.0
2019-06-07T03:59:57.330Z,99.0
2019-06-07T04:01:17.719Z,99.0
2019-06-07T04:02:17.778Z,99.0
2019-06-07T04:02:57.936Z,99.0
2019-06-07T04:03:58.101Z,99.0
2019-06-07T04:04:58.164Z,98.0
2019-06-07T04:06:18.162Z,98.0
2019-06-07T04:07:23.086Z,98.0
2019-06-07T04:09:03.155Z,98.0
2019-06-07T04:09:53.285Z,98.0
2019-06-07T04:12:53.428Z,97.0
2019-06-07T04:13:53.467Z,97.0
2019-06-07T04:14:53.633Z,97.0
2019-06-07T04:17:14.385Z,97.0
2019-06-07T04:18:04.623Z,97.0
2019-06-07T04:18:54.789Z,97.0
2019-06-07T04:19:54.789Z,97.0
2019-06-07T04:21:14.835Z,98.0
2019-06-07T04:22:15.268Z,98.0
2019-06-07T04:22:55.167Z,98.0
2019-06-07T04:23:55.523Z,98.0
2019-06-07T04:24:55.499Z,98.0
2019-06-07T04:26:15.715Z,97.0
2019-06-07T04:27:15.785Z,98.0
2019-06-07T04:27:55.917Z,98.0
2019-06-07T04:30:05.187Z,98.0
2019-06-07T04:30:46.201Z,98.0
2019-06-07T04:32:06.434Z,97.0
2019-06-07T04:33:46.751Z,97.0
2019-06-07T04:34:46.862Z,98.0
2019-06-07T04:35:47.130Z,98.0
2019-06-07T04:37:07.238Z,98.0
2019-06-07T04:38:43.922Z,98.0
2019-06-07T04:39:45.211Z,98.0
2019-06-07T04:41:04.389Z,98.0
2019-06-07T04:42:04.480Z,98.0
2019-06-07T04:42:45.459Z,98.0
2019-06-07T04:43:35.622Z,98.0
2019-06-07T04:44:14.637Z,98.0
2019-06-07T04:45:32.885Z,98.0
2019-06-07T04:46:39.002Z,98.0
2019-06-07T04:47:25.125Z,98.0
2019-06-07T04:48:05.227Z,98.0
2019-06-07T04:51:15.840Z,98.0
2019-06-07T04:52:15.927Z,98.0
2019-06-07T04:56:16.495Z,98.0
2019-06-07T04:57:06.531Z,98.0
2019-06-07T04:57:46.615Z,98.0
2019-06-07T04:58:46.732Z,97.0
2019-06-07T05:00:11.667Z,97.0
2019-06-07T05:01:24.327Z,96.0
2019-06-07T05:02:06.806Z,95.0
2019-06-07T05:04:47.334Z,95.0
2019-06-07T05:06:07.271Z,95.0
2019-06-07T05:07:07.391Z,95.0
2019-06-07T05:08:52.359Z,95.0
2019-06-07T05:09:52.675Z,94.0
2019-06-07T05:11:13.005Z,94.0
2019-06-07T05:12:12.734Z,94.0
2019-06-07T05:12:52.465Z,93.0
2019-06-07T05:13:52.898Z,92.0
2019-06-07T05:14:52.900Z,91.0
2019-06-07T05:16:22.977Z,90.0
2019-06-07T05:17:23.224Z,90.0
2019-06-07T05:23:55.636Z,90.0
2019-06-07T05:25:04.193Z,91.0
2019-06-07T05:26:37.660Z,90.0
2019-06-07T05:27:36.346Z,90.0
2019-06-07T05:28:15.113Z,90.0
2019-06-07T05:29:15.230Z,89.0
2019-06-07T05:30:50.893Z,90.0
2019-06-07T05:31:45.729Z,90.0
2019-06-07T05:32:46.054Z,90.0
2019-06-07T05:33:45.743Z,90.0
2019-06-07T05:34:47.210Z,90.0
2019-06-07T05:36:16.234Z,89.0
2019-06-07T05:37:19.469Z,89.0
2019-06-07T05:38:49.549Z,89.0
2019-06-07T05:39:49.773Z,88.0
2019-06-07T05:42:09.909Z,90.0
2019-06-07T05:43:09.832Z,90.0
2019-06-07T05:44:12.921Z,90.0
2019-06-07T05:45:10.234Z,91.0
2019-06-07T05:46:41.763Z,90.0
2019-06-07T05:47:44.190Z,90.0
2019-06-07T05:48:41.746Z,90.0
2019-06-07T05:49:43.774Z,90.0
2019-06-07T05:51:11.244Z,89.0
2019-06-07T05:51:50.661Z,88.0
2019-06-07T05:52:44.970Z,89.0
2019-06-07T05:53:42.546Z,89.0
2019-06-07T05:54:43.070Z,89.0
2019-06-07T05:56:12.634Z,89.0
2019-06-07T05:56:51.493Z,89.0
2019-06-07T05:57:51.562Z,89.0
2019-06-07T05:58:51.596Z,89.0
2019-06-07T05:59:51.752Z,89.0
2019-06-07T06:01:43.490Z,89.0
2019-06-07T06:03:12.116Z,88.0
2019-06-07T06:04:12.373Z,89.0
2019-06-07T06:05:32.306Z,87.0
2019-06-07T06:12:40.489Z,79.0
2019-06-07T06:12:55.389Z,78.0
2019-06-07T06:14:06.409Z,80.0
2019-06-07T06:14:55.547Z,80.0
2019-06-07T06:16:25.797Z,79.0
2019-06-07T06:17:16.191Z,79.0
2019-06-07T06:18:16.117Z,80.0
2019-06-07T06:19:16.142Z,79.0
2019-06-07T06:20:16.321Z,79.0
2019-06-07T06:21:46.599Z,80.0
2019-06-07T06:22:48.583Z,76.0
2019-06-07T06:23:48.733Z,79.0
2019-06-07T06:25:16.307Z,77.0
2019-06-07T06:26:17.167Z,77.0
2019-06-07T06:27:13.037Z,77.0
2019-06-07T06:28:09.806Z,79.0
2019-06-07T06:28:49.617Z,78.0
2019-06-07T06:29:50.286Z,76.0
2019-06-07T06:31:17.672Z,76.0
2019-06-07T06:32:40.293Z,75.0
2019-06-07T06:32:58.581Z,75.0
2019-06-07T06:33:58.168Z,76.0
2019-06-07T06:34:58.337Z,76.0
2019-06-07T06:36:28.370Z,77.0
2019-06-07T06:37:08.442Z,77.0
2019-06-07T06:38:13.646Z,77.0
2019-06-07T06:39:13.814Z,77.0
2019-06-07T06:40:14.038Z,78.0
2019-06-07T06:41:56.999Z,77.0
2019-06-07T06:43:14.388Z,78.0
2019-06-07T06:44:14.543Z,78.0
2019-06-07T06:45:14.891Z,77.0
2019-06-07T06:46:48.946Z,79.0
2019-06-07T06:47:47.588Z,79.0
2019-06-07T06:48:48.132Z,77.0
2019-06-07T06:49:46.733Z,77.0
2019-06-07T06:51:15.865Z,77.0
2019-06-07T06:51:56.128Z,78.0
2019-06-07T06:52:48.399Z,78.0
2019-06-07T06:53:46.786Z,77.0
2019-06-07T06:54:53.728Z,78.0
2019-06-07T06:56:16.968Z,78.0
2019-06-07T06:57:17.530Z,77.0
2019-06-07T06:57:57.074Z,76.0
2019-06-07T06:59:33.893Z,76.0
2019-06-07T06:59:57.741Z,77.0
2019-06-07T07:01:27.805Z,78.0
2019-06-07T07:02:07.901Z,78.0
2019-06-07T07:03:42.222Z,78.0
2019-06-07T07:04:12.604Z,77.0
2019-06-07T07:05:08.465Z,77.0
2019-06-07T07:06:38.602Z,77.0
2019-06-07T07:07:40.043Z,76.0
2019-06-07T07:08:40.884Z,77.0
2019-06-07T07:09:43.218Z,76.0
2019-06-07T07:11:09.974Z,74.0
2019-06-07T07:12:00.554Z,74.0
2019-06-07T07:12:52.248Z,74.0
2019-06-07T07:13:55.822Z,74.0
2019-06-07T07:14:52.851Z,73.0
2019-06-07T07:16:21.100Z,75.0
2019-06-07T07:17:01.185Z,75.0
2019-06-07T07:18:08.355Z,75.0
2019-06-07T07:19:01.450Z,74.0
2019-06-07T07:20:31.634Z,74.0
2019-06-07T07:21:31.850Z,74.0
2019-06-07T07:22:12.035Z,73.0
2019-06-07T07:23:12.074Z,73.0
2019-06-07T07:24:21.385Z,73.0
2019-06-07T07:25:43.412Z,73.0
2019-06-07T07:26:45.160Z,72.0
2019-06-07T07:28:12.576Z,72.0
2019-06-07T07:28:56.815Z,73.0
2019-06-07T07:30:43.124Z,73.0
2019-06-07T07:31:43.042Z,72.0
2019-06-07T07:33:13.241Z,72.0
2019-06-07T07:34:28.138Z,72.0
2019-06-07T07:34:59.952Z,70.0
2019-06-07T07:36:15.134Z,70.0
2019-06-07T07:36:59.219Z,71.0
2019-06-07T07:38:29.657Z,71.0
2019-06-07T07:42:17.368Z,66.0
2019-06-07T07:43:30.039Z,66.0
2019-06-07T07:48:30.625Z,65.0
2019-06-07T07:52:01.371Z,66.0
2019-06-07T07:53:47.459Z,66.0
2019-06-07T07:59:40.443Z,66.0
2019-06-07T08:04:29.382Z,64.0
2019-06-07T08:05:28.918Z,65.0
2019-06-07T08:06:23.341Z,64.0
2019-06-07T08:07:27.741Z,65.0
2019-06-07T08:08:57.225Z,66.0
2019-06-07T08:10:00.059Z,67.0
2019-06-07T08:11:01.230Z,67.0
2019-06-07T08:12:00.640Z,69.0
2019-06-07T08:13:28.103Z,69.0
2019-06-07T08:14:07.863Z,68.0
2019-06-07T08:15:07.758Z,68.0
2019-06-07T08:16:13.512Z,67.0
2019-06-07T08:16:59.225Z,66.0
2019-06-07T08:18:28.630Z,66.0
2019-06-07T08:19:09.036Z,65.0
2019-06-07T08:20:09.550Z,66.0
2019-06-07T08:21:24.204Z,66.0
2019-06-07T08:22:09.692Z,66.0
2019-06-07T08:23:39.794Z,67.0
2019-06-07T08:24:19.849Z,65.0
2019-06-07T08:25:20.122Z,66.0
2019-06-07T08:26:20.078Z,64.0
2019-06-07T08:27:26.202Z,66.0
2019-06-07T08:28:53.051Z,62.0
2019-06-07T08:30:07.691Z,61.0
2019-06-07T08:30:54.879Z,61.0
2019-06-07T08:31:52.916Z,62.0
2019-06-07T08:33:26.252Z,60.0
2019-06-07T08:34:01.067Z,59.0
2019-06-07T08:38:46.819Z,58.0
2019-06-07T08:44:25.449Z,58.0
2019-06-07T08:45:23.265Z,58.0
2019-06-07T08:46:23.595Z,58.0
2019-06-07T08:47:57.861Z,59.0
2019-06-07T08:48:55.965Z,59.0
2019-06-07T08:49:59.196Z,58.0
2019-06-07T08:50:55.189Z,57.0
2019-06-07T08:52:02.941Z,57.0
2019-06-07T08:53:24.673Z,56.0
2019-06-07T08:54:21.456Z,56.0
2019-06-07T08:54:56.652Z,57.0
2019-06-07T08:55:58.710Z,57.0
2019-06-07T08:57:01.749Z,58.0
2019-06-07T08:58:25.057Z,58.0
2019-06-07T08:59:10.994Z,58.0
2019-06-07T09:00:17.369Z,59.0
2019-06-07T09:01:08.366Z,59.0
2019-06-07T09:02:20.926Z,61.0
2019-06-07T09:03:35.266Z,56.0
2019-06-07T09:08:07.069Z,56.0
2019-06-07T09:08:49.563Z,55.0
2019-06-07T09:09:49.660Z,56.0
2019-06-07T09:10:49.730Z,56.0
2019-06-07T09:11:49.730Z,53.0
2019-06-07T09:13:19.825Z,52.0
2019-06-07T09:14:04.817Z,53.0
2019-06-07T09:15:02.669Z,54.0
2019-06-07T09:15:50.339Z,52.0
2019-06-07T09:16:50.609Z,54.0
2019-06-07T09:19:03.998Z,53.0
2019-06-07T09:20:07.598Z,53.0
2019-06-07T09:21:07.058Z,54.0
2019-06-07T09:22:03.067Z,53.0
2019-06-07T09:23:31.952Z,53.0
2019-06-07T09:24:12.193Z,54.0
2019-06-07T09:25:09.831Z,54.0
2019-06-07T09:26:10.420Z,54.0
2019-06-07T09:27:05.113Z,53.0
2019-06-07T09:28:32.115Z,53.0
2019-06-07T09:29:12.375Z,50.0
2019-06-07T09:30:18.148Z,52.0
2019-06-07T09:31:12.856Z,53.0
2019-06-07T09:32:42.534Z,53.0
2019-06-07T09:33:42.650Z,51.0
2019-06-07T09:49:18.648Z,46.0
2019-06-07T09:50:11.342Z,46.0
2019-06-07T09:51:18.021Z,47.0
2019-06-07T09:52:09.010Z,49.0
2019-06-07T09:53:36.435Z,49.0
2019-06-07T09:54:56.407Z,47.0
2019-06-07T09:55:23.412Z,45.0
2019-06-07T09:56:17.065Z,46.0
2019-06-07T09:57:37.377Z,47.0
2019-06-07T09:58:52.339Z,48.0
2019-06-07T09:59:17.843Z,47.0
2019-06-07T10:00:38.585Z,50.0
2019-06-07T10:01:18.417Z,49.0
2019-06-07T10:02:48.568Z,50.0
2019-06-07T10:03:48.630Z,49.0
2019-06-07T10:04:48.767Z,48.0
2019-06-07T10:05:48.780Z,47.0
2019-06-07T10:06:48.927Z,47.0
2019-06-07T10:09:42.168Z,50.0
2019-06-07T10:11:07.143Z,48.0
2019-06-07T10:12:06.965Z,47.0
2019-06-07T10:13:37.185Z,49.0
2019-06-07T10:14:17.199Z,49.0
2019-06-07T10:15:08.702Z,49.0
2019-06-07T10:16:08.794Z,48.0
2019-06-07T10:17:09.090Z,47.0
2019-06-07T10:18:37.871Z,47.0
2019-06-07T10:19:17.897Z,46.0
2019-06-07T10:20:18.019Z,47.0
2019-06-07T10:21:10.575Z,46.0
2019-06-07T10:22:09.395Z,45.0
2019-06-07T10:23:38.243Z,47.0
2019-06-07T10:24:18.265Z,48.0
2019-06-07T10:25:18.674Z,46.0
2019-06-07T10:26:10.086Z,47.0
2019-06-07T10:27:09.992Z,46.0
2019-06-07T10:28:39.306Z,48.0
2019-06-07T10:29:19.232Z,46.0
2019-06-07T10:30:19.410Z,47.0
2019-06-07T10:31:11.328Z,47.0
2019-06-07T10:32:11.025Z,47.0
2019-06-07T10:33:40.184Z,47.0
2019-06-07T10:34:20.326Z,47.0
2019-06-07T10:35:20.435Z,45.0
2019-06-07T10:36:20.575Z,47.0
2019-06-07T10:37:50.848Z,46.0
2019-06-07T10:38:50.984Z,45.0
2019-06-07T10:39:51.080Z,44.0
2019-06-07T10:40:51.183Z,46.0
2019-06-07T10:41:54.014Z,46.0
2019-06-07T10:43:21.790Z,46.0
2019-06-07T10:45:12.253Z,45.0
2019-06-07T10:46:12.203Z,45.0
2019-06-07T10:47:12.410Z,45.0
2019-06-07T10:48:12.430Z,46.0
2019-06-07T10:49:12.238Z,46.0
2019-06-07T10:50:12.482Z,46.0
2019-06-07T10:51:14.671Z,46.0
2019-06-07T10:52:42.800Z,45.0
2019-06-07T10:53:43.175Z,44.0
2019-06-07T10:54:26.932Z,45.0
2019-06-07T10:55:13.323Z,43.0
2019-06-07T10:56:13.491Z,44.0
2019-06-07T10:57:43.616Z,43.0
2019-06-07T10:58:43.823Z,43.0
2019-06-07T10:59:23.930Z,43.0
2019-06-07T11:00:23.990Z,43.0
2019-06-07T11:01:24.554Z,44.0
2019-06-07T11:02:55.335Z,46.0
2019-06-07T11:03:54.710Z,45.0
2019-06-07T11:04:54.814Z,42.0
2019-06-07T11:06:55.287Z,44.0
2019-06-07T11:09:15.373Z,43.0
2019-06-07T11:10:17.539Z,42.0
2019-06-07T11:11:15.671Z,43.0
2019-06-07T11:12:45.785Z,42.0
2019-06-07T11:13:45.782Z,40.0
2019-06-07T11:14:25.791Z,41.0
2019-06-07T11:15:25.961Z,42.0
2019-06-07T11:16:16.121Z,41.0
2019-06-07T11:17:46.267Z,42.0
2019-06-07T11:18:46.395Z,43.0
2019-06-07T11:19:26.482Z,42.0
2019-06-07T11:20:26.653Z,42.0
2019-06-07T11:21:26.703Z,42.0
2019-06-07T11:22:56.997Z,43.0
2019-06-07T11:23:57.097Z,43.0
2019-06-07T11:24:57.258Z,43.0
2019-06-07T11:25:57.452Z,41.0
2019-06-07T11:26:57.573Z,41.0
2019-06-07T11:28:27.945Z,40.0
2019-06-07T11:29:08.910Z,39.0
2019-06-07T11:30:08.524Z,40.0
2019-06-07T11:31:08.488Z,40.0
2019-06-07T11:32:08.571Z,39.0
2019-06-07T11:33:39.031Z,40.0
2019-06-07T11:34:18.949Z,40.0
2019-06-07T11:35:19.159Z,39.0
2019-06-07T11:36:19.135Z,38.0
2019-06-07T11:37:45.794Z,40.0
2019-06-07T11:38:46.013Z,40.0
2019-06-07T11:39:26.014Z,38.0
2019-06-07T11:40:33.856Z,40.0
2019-06-07T11:41:26.138Z,40.0
2019-06-07T11:42:56.133Z,39.0
2019-06-07T11:43:56.300Z,41.0
2019-06-07T11:44:57.316Z,40.0
2019-06-07T11:45:56.724Z,40.0
2019-06-07T11:46:56.548Z,41.0
2019-06-07T11:48:27.073Z,41.0
2019-06-07T11:49:08.199Z,40.0
2019-06-07T11:50:07.432Z,39.0
2019-06-07T11:50:57.755Z,40.0
2019-06-07T11:51:57.785Z,39.0
2019-06-07T11:53:28.237Z,40.0
2019-06-07T11:54:09.308Z,41.0
2019-06-07T11:55:08.982Z,39.0
2019-06-07T11:56:10.211Z,38.0
2019-06-07T11:57:38.564Z,39.0
2019-06-07T11:58:38.686Z,40.0
2019-06-07T11:59:18.677Z,39.0
2019-06-07T12:00:18.875Z,40.0
2019-06-07T12:01:19.108Z,40.0
2019-06-07T12:02:49.117Z,39.0
2019-06-07T12:03:49.496Z,40.0
2019-06-07T12:04:59.638Z,40.0
2019-06-07T12:06:00.173Z,39.0
2019-06-07T12:07:00.421Z,39.0
2019-06-07T12:09:16.789Z,36.0
2019-06-07T12:10:19.047Z,40.0
2019-06-07T12:11:16.483Z,39.0
2019-06-07T12:12:45.846Z,39.0
2019-06-07T12:13:46.131Z,40.0
2019-06-07T12:14:26.218Z,39.0
2019-06-07T12:15:17.261Z,38.0
2019-06-07T12:16:17.371Z,39.0
2019-06-07T12:17:46.597Z,40.0
2019-06-07T12:18:46.715Z,40.0
2019-06-07T12:19:26.716Z,38.0
2019-06-07T12:20:26.748Z,38.0
2019-06-07T12:21:26.991Z,37.0
2019-06-07T12:22:57.041Z,40.0
2019-06-07T12:23:57.105Z,39.0
2019-06-07T12:24:57.553Z,40.0
2019-06-07T12:25:57.587Z,39.0
2019-06-07T12:26:57.766Z,41.0
2019-06-07T12:28:27.844Z,41.0
2019-06-07T12:30:58.658Z,39.0
2019-06-07T12:31:58.714Z,39.0
2019-06-07T12:33:28.835Z,39.0
2019-06-07T12:39:20.189Z,38.0
2019-06-07T12:40:30.009Z,40.0
2019-06-07T12:41:20.379Z,37.0
2019-06-07T12:42:50.697Z,38.0
2019-06-07T12:44:20.879Z,40.0
2019-06-07T12:45:39.964Z,40.0
2019-06-07T12:46:26.054Z,40.0
2019-06-07T12:47:51.368Z,40.0
2019-06-07T12:49:21.518Z,38.0
2019-06-07T12:50:21.792Z,39.0
2019-06-07T12:51:21.814Z,38.0
2019-06-07T12:52:52.138Z,39.0
2019-06-07T12:54:23.709Z,37.0
2019-06-07T12:55:23.051Z,36.0
2019-06-07T12:56:22.366Z,38.0
2019-06-07T12:59:22.595Z,37.0
2019-06-07T13:04:22.991Z,39.0
2019-06-07T13:05:23.856Z,40.0
2019-06-07T13:06:23.676Z,39.0
2019-06-07T13:07:53.313Z,37.0
2019-06-07T13:08:53.259Z,38.0
2019-06-07T13:09:53.346Z,38.0
2019-06-07T13:10:53.519Z,38.0
2019-06-07T13:11:53.679Z,36.0
2019-06-07T13:13:24.528Z,37.0
2019-06-07T13:14:04.108Z,37.0
2019-06-07T13:15:04.148Z,37.0
2019-06-07T13:15:54.342Z,36.0
2019-06-07T13:16:54.240Z,37.0
2019-06-07T13:18:25.279Z,39.0
2019-06-07T13:19:04.752Z,36.0
2019-06-07T13:20:04.916Z,37.0
2019-06-07T13:21:05.085Z,37.0
2019-06-07T13:22:35.263Z,36.0
2019-06-07T13:23:35.594Z,36.0
2019-06-07T13:24:05.591Z,34.0
2019-06-07T13:25:07.181Z,34.0
2019-06-07T13:25:57.236Z,35.0
2019-06-07T13:26:57.316Z,34.0
2019-06-07T13:28:28.816Z,35.0
2019-06-07T13:29:07.429Z,35.0
2019-06-07T13:30:10.017Z,35.0
2019-06-07T13:31:07.477Z,34.0
2019-06-07T13:34:13.883Z,34.0
2019-06-07T13:35:14.453Z,35.0
2019-06-07T13:36:13.911Z,35.0
2019-06-07T13:37:43.948Z,35.0
2019-06-07T13:38:24.339Z,35.0
2019-06-07T13:39:26.412Z,35.0
2019-06-07T13:40:54.166Z,34.0
2019-06-07T13:41:54.183Z,33.0
2019-06-07T13:43:25.345Z,33.0
2019-06-07T13:44:04.267Z,32.0
2019-06-07T13:45:04.304Z,33.0
2019-06-07T13:46:04.318Z,34.0
2019-06-07T13:47:34.337Z,34.0
2019-06-07T13:48:34.407Z,35.0
2019-06-07T13:58:54.647Z,34.0
2019-06-07T13:59:54.617Z,34.0
2019-06-07T14:00:54.675Z,34.0
2019-06-07T14:02:26.058Z,35.0
2019-06-07T14:03:34.745Z,35.0
2019-06-07T14:13:04.934Z,39.0
2019-06-07T14:18:55.069Z,37.0
2019-06-07T14:19:55.072Z,35.0
2019-06-07T14:20:55.136Z,35.0
2019-06-07T14:22:25.149Z,34.0
2019-06-07T14:23:47.942Z,35.0
2019-06-07T14:33:05.399Z,32.0
2019-06-07T14:38:55.533Z,33.0
2019-06-07T14:39:58.509Z,33.0
2019-06-07T14:40:58.277Z,34.0
2019-06-07T14:42:29.217Z,34.0
2019-06-07T14:43:29.579Z,35.0
2019-06-07T14:44:08.368Z,34.0
2019-06-07T14:44:58.402Z,36.0
2019-06-07T14:45:48.400Z,33.0
2019-06-07T14:47:18.435Z,34.0
2019-06-07T14:48:58.499Z,32.0
2019-06-07T14:49:58.477Z,33.0
2019-06-07T14:50:58.489Z,33.0
2019-06-07T14:52:28.606Z,33.0
2019-06-07T14:53:28.751Z,34.0
2019-06-07T14:54:08.582Z,32.0
2019-06-07T14:55:08.608Z,31.0
2019-06-07T14:56:08.621Z,31.0
2019-06-07T14:57:38.645Z,32.0
2019-06-07T14:58:43.181Z,33.0
2019-06-07T14:59:38.878Z,32.0
2019-06-07T15:00:38.937Z,34.0
2019-06-07T15:01:40.675Z,33.0
2019-06-07T15:03:08.739Z,33.0
2019-06-07T15:04:58.798Z,33.0
2019-06-07T15:05:58.801Z,33.0
2019-06-07T15:07:28.802Z,32.0
2019-06-07T15:08:28.816Z,33.0
2019-06-07T15:09:08.822Z,34.0
2019-06-07T15:09:59.887Z,34.0
2019-06-07T15:10:59.894Z,33.0
2019-06-07T15:12:24.872Z,31.0
2019-06-07T15:13:19.850Z,32.0
2019-06-07T15:13:59.883Z,32.0
2019-06-07T15:14:49.913Z,32.0
2019-06-07T15:17:19.981Z,31.0
2019-06-07T15:18:20.045Z,33.0
2019-06-07T15:18:49.993Z,32.0
2019-06-07T15:19:50.003Z,32.0
2019-06-07T15:20:50.070Z,34.0
2019-06-07T15:23:20.100Z,34.0
2019-06-07T15:24:00.114Z,35.0
2019-06-07T15:25:00.170Z,34.0
2019-06-07T15:26:00.186Z,34.0
2019-06-07T15:27:31.250Z,34.0
2019-06-07T15:28:31.726Z,33.0
2019-06-07T15:29:10.243Z,33.0
2019-06-07T15:30:11.258Z,33.0
2019-06-07T15:31:10.439Z,32.0
2019-06-07T15:32:40.395Z,32.0
2019-06-07T15:33:40.379Z,33.0
2019-06-07T15:35:10.465Z,33.0
2019-06-07T15:36:10.522Z,32.0
2019-06-07T15:37:40.527Z,31.0
2019-06-07T15:38:40.563Z,30.0
2019-06-07T15:49:00.789Z,33.0
2019-06-07T15:50:10.860Z,32.0
2019-06-07T15:51:10.931Z,32.0
2019-06-07T15:52:43.148Z,32.0
2019-06-07T16:03:01.071Z,33.0
2019-06-07T16:04:11.093Z,32.0
2019-06-07T16:05:12.071Z,32.0
2019-06-07T16:06:11.114Z,32.0
2019-06-07T16:07:42.503Z,31.0
2019-06-07T16:09:11.246Z,32.0
2019-06-07T16:10:11.175Z,32.0
2019-06-07T16:11:11.217Z,32.0
2019-06-07T16:12:55.151Z,32.0
2019-06-07T16:23:01.413Z,41.0
2019-06-07T16:24:11.462Z,42.0
2019-06-07T16:25:11.495Z,43.0
2019-06-07T16:26:11.487Z,43.0
2019-06-07T16:27:42.740Z,45.0
2019-06-07T16:29:11.573Z,46.0
2019-06-07T16:30:11.582Z,47.0
2019-06-07T16:31:11.594Z,47.0
2019-06-07T16:32:41.911Z,47.0
2019-06-07T16:43:16.073Z,50.0
2019-06-07T16:44:11.847Z,50.0
2019-06-07T16:45:11.892Z,50.0
2019-06-07T16:46:11.903Z,51.0
2019-06-07T16:47:43.430Z,52.0
2019-06-07T16:52:42.507Z,54.0
2019-06-07T17:03:02.214Z,57.0
2019-06-07T17:04:02.351Z,58.0
2019-06-07T17:05:02.539Z,58.0
2019-06-07T17:06:02.359Z,58.0
2019-06-07T17:08:02.380Z,59.0
2019-06-07T17:09:02.382Z,59.0
2019-06-07T17:10:02.448Z,60.0
2019-06-07T17:11:02.529Z,60.0
2019-06-07T17:12:32.624Z,61.0
2019-06-07T17:13:12.533Z,62.0
2019-06-07T17:23:02.736Z,63.0
2019-06-07T17:24:02.793Z,63.0
2019-06-07T17:25:02.816Z,62.0
2019-06-07T17:26:02.799Z,62.0
2019-06-07T17:27:32.896Z,62.0
2019-06-07T17:28:12.879Z,62.0
2019-06-07T17:29:12.894Z,62.0
2019-06-07T17:32:50.408Z,62.0
2019-06-07T17:33:13.036Z,62.0
2019-06-07T17:34:13.045Z,62.0
2019-06-07T17:35:13.043Z,62.0
2019-06-07T17:36:13.065Z,61.0
2019-06-07T17:37:33.073Z,61.0
2019-06-07T17:42:33.142Z,60.0
2019-06-07T17:43:13.203Z,60.0
2019-06-07T17:44:13.220Z,60.0
2019-06-07T17:45:14.325Z,61.0
2019-06-07T17:46:13.334Z,60.0
2019-06-07T17:47:33.318Z,60.0
2019-06-07T17:49:13.357Z,60.0
2019-06-07T17:50:13.434Z,60.0
2019-06-07T17:51:13.428Z,60.0
2019-06-07T17:52:33.518Z,61.0
2019-06-07T17:53:13.523Z,61.0
2019-06-07T17:54:13.532Z,60.0
2019-06-07T17:55:13.572Z,62.0
2019-06-07T17:56:03.582Z,61.0
2019-06-07T17:58:03.710Z,62.0
2019-06-07T17:59:03.750Z,64.0
2019-06-07T18:00:27.487Z,64.0
2019-06-07T18:01:03.815Z,67.0
2019-06-07T18:03:13.851Z,67.0
2019-06-07T18:04:13.870Z,67.0
2019-06-07T18:05:13.978Z,67.0
2019-06-07T18:06:03.941Z,67.0
2019-06-07T18:08:03.985Z,67.0
2019-06-07T18:09:04.000Z,66.0
2019-06-07T18:10:04.054Z,69.0
2019-06-07T18:11:04.125Z,69.0
2019-06-07T18:13:14.217Z,69.0
2019-06-07T18:14:14.202Z,68.0
2019-06-07T18:15:14.343Z,69.0
2019-06-07T18:16:04.339Z,69.0
2019-06-07T18:18:04.360Z,70.0
2019-06-07T18:19:04.380Z,70.0
2019-06-07T18:20:04.406Z,71.0
2019-06-07T18:21:04.472Z,71.0
2019-06-07T18:23:14.442Z,70.0
2019-06-07T18:24:14.463Z,71.0